sensor_id;sensor_type;location;lat;lon;timestamp;temperature;humidity
5834;DHT22;2943;48.012;10.968;2022-11-18T00:00:06;7.20;99.90
5834;DHT22;2943;48.012;10.968;2022-11-18T00:02:33;7.20;99.90
5834;DHT22;2943;48.012;10.968;2022-11-18T00:05:00;7.20;99.90
5834;DHT22;2943;48.012;10.968;2022-11-18T00:07:27;7.20;99.90
5834;DHT22;2943;48.012;10.968;2022-11-18T00:09:54;7.20;99.90
5834;DHT22;2943;48.012;10.968;2022-11-18T00:12:22;7.20;99.90
5834;DHT22;2943;48.012;10.968;2022-11-18T00:15:17;7.20;99.90
5834;DHT22;2943;48.012;10.968;2022-11-18T00:17:44;7.30;99.90
5834;DHT22;2943;48.012;10.968;2022-11-18T00:20:11;7.20;99.90
5834;DHT22;2943;48.012;10.968;2022-11-18T00:22:38;7.20;99.90
5834;DHT22;2943;48.012;10.968;2022-11-18T00:25:05;7.20;99.90
5834;DHT22;2943;48.012;10.968;2022-11-18T00:27:33;7.20;99.90
5834;DHT22;2943;48.012;10.968;2022-11-18T00:30:00;7.20;99.90
5834;DHT22;2943;48.012;10.968;2022-11-18T00:32:27;7.20;99.90
5834;DHT22;2943;48.012;10.968;2022-11-18T00:34:54;7.20;99.90
5834;DHT22;2943;48.012;10.968;2022-11-18T00:37:21;7.20;99.90
5834;DHT22;2943;48.012;10.968;2022-11-18T00:39:48;7.30;99.90
5834;DHT22;2943;48.012;10.968;2022-11-18T00:42:15;7.30;99.90
5834;DHT22;2943;48.012;10.968;2022-11-18T00:45:00;7.30;99.90
5834;DHT22;2943;48.012;10.968;2022-11-18T00:47:27;7.30;99.90
5834;DHT22;2943;48.012;10.968;2022-11-18T00:49:54;7.30;99.90
5834;DHT22;2943;48.012;10.968;2022-11-18T00:52:21;7.30;99.90
5834;DHT22;2943;48.012;10.968;2022-11-18T00:54:48;7.30;99.90
5834;DHT22;2943;48.012;10.968;2022-11-18T00:57:15;7.30;99.90
5834;DHT22;2943;48.012;10.968;2022-11-18T00:59:42;7.30;99.90
5834;DHT22;2943;48.012;10.968;2022-11-18T01:02:10;7.40;99.90
5834;DHT22;2943;48.012;10.968;2022-11-18T01:04:37;7.40;99.90
5834;DHT22;2943;48.012;10.968;2022-11-18T01:07:04;7.40;99.90
5834;DHT22;2943;48.012;10.968;2022-11-18T01:09:31;7.40;99.90
5834;DHT22;2943;48.012;10.968;2022-11-18T01:11:58;7.30;99.90
5834;DHT22;2943;48.012;10.968;2022-11-18T01:14:42;7.30;99.90
5834;DHT22;2943;48.012;10.968;2022-11-18T01:17:10;7.30;99.90
5834;DHT22;2943;48.012;10.968;2022-11-18T01:19:37;7.30;99.90
5834;DHT22;2943;48.012;10.968;2022-11-18T01:22:04;7.20;99.90
5834;DHT22;2943;48.012;10.968;2022-11-18T01:24:31;7.20;99.90
5834;DHT22;2943;48.012;10.968;2022-11-18T01:26:59;7.20;99.90
5834;DHT22;2943;48.012;10.968;2022-11-18T01:29:26;7.20;99.90
5834;DHT22;2943;48.012;10.968;2022-11-18T01:31:53;7.20;99.90
5834;DHT22;2943;48.012;10.968;2022-11-18T01:34:21;7.20;99.90
5834;DHT22;2943;48.012;10.968;2022-11-18T01:36:51;7.20;99.90
5834;DHT22;2943;48.012;10.968;2022-11-18T01:39:18;7.10;99.90
5834;DHT22;2943;48.012;10.968;2022-11-18T01:41:44;7.10;99.90
5834;DHT22;2943;48.012;10.968;2022-11-18T01:47:11;7.10;99.90
5834;DHT22;2943;48.012;10.968;2022-11-18T01:49:40;7.10;99.90
5834;DHT22;2943;48.012;10.968;2022-11-18T01:52:07;7.20;99.90
5834;DHT22;2943;48.012;10.968;2022-11-18T01:54:38;7.10;99.90
5834;DHT22;2943;48.012;10.968;2022-11-18T01:57:10;7.10;99.90
5834;DHT22;2943;48.012;10.968;2022-11-18T01:59:40;7.10;99.90
5834;DHT22;2943;48.012;10.968;2022-11-18T02:02:10;7.10;99.90
5834;DHT22;2943;48.012;10.968;2022-11-18T02:04:40;7.00;99.90
5834;DHT22;2943;48.012;10.968;2022-11-18T02:07:08;7.00;99.90
5834;DHT22;2943;48.012;10.968;2022-11-18T02:09:37;7.00;99.90
5834;DHT22;2943;48.012;10.968;2022-11-18T02:12:05;6.90;99.90
5834;DHT22;2943;48.012;10.968;2022-11-18T02:14:36;6.80;99.90
5834;DHT22;2943;48.012;10.968;2022-11-18T02:17:07;6.80;99.90
5834;DHT22;2943;48.012;10.968;2022-11-18T02:19:56;6.70;99.90
5834;DHT22;2943;48.012;10.968;2022-11-18T02:22:40;6.70;99.90
5834;DHT22;2943;48.012;10.968;2022-11-18T02:25:17;6.70;99.90
5834;DHT22;2943;48.012;10.968;2022-11-18T02:28:11;6.80;99.90
5834;DHT22;2943;48.012;10.968;2022-11-18T02:30:51;6.80;99.90
5834;DHT22;2943;48.012;10.968;2022-11-18T02:33:22;6.80;99.90
5834;DHT22;2943;48.012;10.968;2022-11-18T02:35:55;6.80;99.90
5834;DHT22;2943;48.012;10.968;2022-11-18T02:38:25;6.80;99.90
5834;DHT22;2943;48.012;10.968;2022-11-18T02:40:55;6.80;99.90
5834;DHT22;2943;48.012;10.968;2022-11-18T02:43:27;6.80;99.90
5834;DHT22;2943;48.012;10.968;2022-11-18T02:46:00;6.80;99.90
5834;DHT22;2943;48.012;10.968;2022-11-18T02:48:30;6.80;99.90
5834;DHT22;2943;48.012;10.968;2022-11-18T02:50:59;6.90;99.90
5834;DHT22;2943;48.012;10.968;2022-11-18T02:53:28;6.80;99.90
5834;DHT22;2943;48.012;10.968;2022-11-18T02:55:57;6.80;99.90
5834;DHT22;2943;48.012;10.968;2022-11-18T02:58:25;6.80;99.90
5834;DHT22;2943;48.012;10.968;2022-11-18T03:00:53;6.80;99.90
5834;DHT22;2943;48.012;10.968;2022-11-18T03:03:26;6.80;99.90
5834;DHT22;2943;48.012;10.968;2022-11-18T03:06:04;6.80;99.90
5834;DHT22;2943;48.012;10.968;2022-11-18T03:08:37;6.80;99.90
5834;DHT22;2943;48.012;10.968;2022-11-18T03:11:11;6.80;99.90
5834;DHT22;2943;48.012;10.968;2022-11-18T03:13:56;6.80;99.90
5834;DHT22;2943;48.012;10.968;2022-11-18T03:16:32;6.70;99.90
5834;DHT22;2943;48.012;10.968;2022-11-18T03:19:06;6.70;99.90
5834;DHT22;2943;48.012;10.968;2022-11-18T03:21:38;6.70;99.90
5834;DHT22;2943;48.012;10.968;2022-11-18T03:24:10;6.80;99.90
5834;DHT22;2943;48.012;10.968;2022-11-18T03:26:39;6.70;99.90
5834;DHT22;2943;48.012;10.968;2022-11-18T03:29:12;6.80;99.90
5834;DHT22;2943;48.012;10.968;2022-11-18T03:31:45;6.80;99.90
5834;DHT22;2943;48.012;10.968;2022-11-18T03:34:17;6.80;99.90
5834;DHT22;2943;48.012;10.968;2022-11-18T03:36:48;6.80;99.90
5834;DHT22;2943;48.012;10.968;2022-11-18T03:39:18;6.80;99.90
5834;DHT22;2943;48.012;10.968;2022-11-18T03:41:49;6.80;99.90
5834;DHT22;2943;48.012;10.968;2022-11-18T03:44:20;6.80;99.90
5834;DHT22;2943;48.012;10.968;2022-11-18T03:46:51;6.80;99.90
5834;DHT22;2943;48.012;10.968;2022-11-18T03:49:26;6.90;99.90
5834;DHT22;2943;48.012;10.968;2022-11-18T03:51:57;6.90;99.90
5834;DHT22;2943;48.012;10.968;2022-11-18T03:54:28;6.90;99.90
5834;DHT22;2943;48.012;10.968;2022-11-18T03:56:59;7.00;99.90
5834;DHT22;2943;48.012;10.968;2022-11-18T03:59:31;7.00;99.90
5834;DHT22;2943;48.012;10.968;2022-11-18T04:02:03;7.00;99.90
5834;DHT22;2943;48.012;10.968;2022-11-18T04:04:32;6.90;99.90
5834;DHT22;2943;48.012;10.968;2022-11-18T04:07:02;6.90;99.90
5834;DHT22;2943;48.012;10.968;2022-11-18T04:09:35;6.90;99.90
5834;DHT22;2943;48.012;10.968;2022-11-18T04:12:08;6.90;99.90
5834;DHT22;2943;48.012;10.968;2022-11-18T04:14:38;6.90;99.90
5834;DHT22;2943;48.012;10.968;2022-11-18T04:17:08;6.80;99.90
5834;DHT22;2943;48.012;10.968;2022-11-18T04:19:37;6.80;99.90
5834;DHT22;2943;48.012;10.968;2022-11-18T04:22:05;6.80;99.90
5834;DHT22;2943;48.012;10.968;2022-11-18T04:24:32;6.80;99.90
5834;DHT22;2943;48.012;10.968;2022-11-18T04:26:59;6.70;99.90
5834;DHT22;2943;48.012;10.968;2022-11-18T04:29:27;6.80;99.90
5834;DHT22;2943;48.012;10.968;2022-11-18T04:31:54;6.80;99.90
5834;DHT22;2943;48.012;10.968;2022-11-18T04:34:21;6.80;99.90
5834;DHT22;2943;48.012;10.968;2022-11-18T04:36:49;6.70;99.90
5834;DHT22;2943;48.012;10.968;2022-11-18T04:39:18;6.70;99.90
5834;DHT22;2943;48.012;10.968;2022-11-18T04:41:45;6.60;99.90
5834;DHT22;2943;48.012;10.968;2022-11-18T04:44:22;6.60;99.90
5834;DHT22;2943;48.012;10.968;2022-11-18T04:46:49;6.60;99.90
5834;DHT22;2943;48.012;10.968;2022-11-18T04:49:17;6.60;99.90
5834;DHT22;2943;48.012;10.968;2022-11-18T04:51:44;6.60;99.90
5834;DHT22;2943;48.012;10.968;2022-11-18T04:54:14;6.60;99.90
5834;DHT22;2943;48.012;10.968;2022-11-18T04:56:42;6.50;99.90
5834;DHT22;2943;48.012;10.968;2022-11-18T04:59:11;6.50;99.90
5834;DHT22;2943;48.012;10.968;2022-11-18T05:01:38;6.50;99.90
5834;DHT22;2943;48.012;10.968;2022-11-18T05:04:06;6.40;99.90
5834;DHT22;2943;48.012;10.968;2022-11-18T05:06:33;6.40;99.90
5834;DHT22;2943;48.012;10.968;2022-11-18T05:09:00;6.40;99.90
5834;DHT22;2943;48.012;10.968;2022-11-18T05:11:32;6.40;99.90
5834;DHT22;2943;48.012;10.968;2022-11-18T05:14:29;6.40;99.90
5834;DHT22;2943;48.012;10.968;2022-11-18T05:17:03;6.30;99.90
5834;DHT22;2943;48.012;10.968;2022-11-18T05:19:30;6.30;99.90
5834;DHT22;2943;48.012;10.968;2022-11-18T05:21:57;6.30;99.90
5834;DHT22;2943;48.012;10.968;2022-11-18T05:24:24;6.30;99.90
5834;DHT22;2943;48.012;10.968;2022-11-18T05:26:53;6.30;99.90
5834;DHT22;2943;48.012;10.968;2022-11-18T05:29:20;6.30;99.90
5834;DHT22;2943;48.012;10.968;2022-11-18T05:31:48;6.30;99.90
5834;DHT22;2943;48.012;10.968;2022-11-18T05:34:15;6.30;99.90
5834;DHT22;2943;48.012;10.968;2022-11-18T05:36:42;6.30;99.90
5834;DHT22;2943;48.012;10.968;2022-11-18T05:39:09;6.30;99.90
5834;DHT22;2943;48.012;10.968;2022-11-18T05:41:37;6.30;99.90
5834;DHT22;2943;48.012;10.968;2022-11-18T05:44:25;6.30;99.90
5834;DHT22;2943;48.012;10.968;2022-11-18T05:46:52;6.30;99.90
5834;DHT22;2943;48.012;10.968;2022-11-18T05:49:19;6.30;99.90
5834;DHT22;2943;48.012;10.968;2022-11-18T05:51:46;6.20;99.90
5834;DHT22;2943;48.012;10.968;2022-11-18T05:54:13;6.30;99.90
5834;DHT22;2943;48.012;10.968;2022-11-18T05:56:42;6.30;99.90
5834;DHT22;2943;48.012;10.968;2022-11-18T05:59:12;6.30;99.90
5834;DHT22;2943;48.012;10.968;2022-11-18T06:01:45;6.30;99.90
5834;DHT22;2943;48.012;10.968;2022-11-18T06:04:17;6.30;99.90
5834;DHT22;2943;48.012;10.968;2022-11-18T06:06:47;6.40;99.90
5834;DHT22;2943;48.012;10.968;2022-11-18T06:09:17;6.40;99.90
5834;DHT22;2943;48.012;10.968;2022-11-18T06:11:50;6.40;99.90
5834;DHT22;2943;48.012;10.968;2022-11-18T06:14:21;6.40;99.90
5834;DHT22;2943;48.012;10.968;2022-11-18T06:16:53;6.40;99.90
5834;DHT22;2943;48.012;10.968;2022-11-18T06:19:21;6.40;99.90
5834;DHT22;2943;48.012;10.968;2022-11-18T06:21:48;6.40;99.90
5834;DHT22;2943;48.012;10.968;2022-11-18T06:24:16;6.50;99.90
5834;DHT22;2943;48.012;10.968;2022-11-18T06:26:44;6.50;99.90
5834;DHT22;2943;48.012;10.968;2022-11-18T06:29:14;6.50;99.90
5834;DHT22;2943;48.012;10.968;2022-11-18T06:31:42;6.50;99.90
5834;DHT22;2943;48.012;10.968;2022-11-18T06:34:12;6.50;99.90
5834;DHT22;2943;48.012;10.968;2022-11-18T06:36:39;6.50;99.90
5834;DHT22;2943;48.012;10.968;2022-11-18T06:39:06;6.60;99.90
5834;DHT22;2943;48.012;10.968;2022-11-18T06:41:34;6.60;99.90
5834;DHT22;2943;48.012;10.968;2022-11-18T06:44:03;6.50;99.90
5834;DHT22;2943;48.012;10.968;2022-11-18T06:46:29;6.60;99.90
5834;DHT22;2943;48.012;10.968;2022-11-18T06:49:15;6.60;99.90
5834;DHT22;2943;48.012;10.968;2022-11-18T06:51:41;6.60;99.90
5834;DHT22;2943;48.012;10.968;2022-11-18T06:54:08;6.60;99.90
5834;DHT22;2943;48.012;10.968;2022-11-18T06:56:35;6.60;99.90
5834;DHT22;2943;48.012;10.968;2022-11-18T06:59:02;6.60;99.90
5834;DHT22;2943;48.012;10.968;2022-11-18T07:01:34;6.60;99.90
5834;DHT22;2943;48.012;10.968;2022-11-18T07:04:02;6.60;99.90
5834;DHT22;2943;48.012;10.968;2022-11-18T07:06:33;6.60;99.90
5834;DHT22;2943;48.012;10.968;2022-11-18T07:09:01;6.60;99.90
5834;DHT22;2943;48.012;10.968;2022-11-18T07:11:30;6.60;99.90
5834;DHT22;2943;48.012;10.968;2022-11-18T07:13:56;6.60;99.90
5834;DHT22;2943;48.012;10.968;2022-11-18T07:16:25;6.60;99.90
5834;DHT22;2943;48.012;10.968;2022-11-18T07:18:53;6.60;99.90
5834;DHT22;2943;48.012;10.968;2022-11-18T07:21:22;6.70;99.90
5834;DHT22;2943;48.012;10.968;2022-11-18T07:23:51;6.70;99.90
5834;DHT22;2943;48.012;10.968;2022-11-18T07:26:18;6.60;99.90
5834;DHT22;2943;48.012;10.968;2022-11-18T07:28:45;6.70;99.90
5834;DHT22;2943;48.012;10.968;2022-11-18T07:31:15;6.60;99.90
5834;DHT22;2943;48.012;10.968;2022-11-18T07:33:43;6.60;99.90
5834;DHT22;2943;48.012;10.968;2022-11-18T07:36:13;6.60;99.90
5834;DHT22;2943;48.012;10.968;2022-11-18T07:38:41;6.60;99.90
5834;DHT22;2943;48.012;10.968;2022-11-18T07:41:11;6.60;99.90
5834;DHT22;2943;48.012;10.968;2022-11-18T07:43:40;6.70;99.90
5834;DHT22;2943;48.012;10.968;2022-11-18T07:46:15;6.70;99.90
5834;DHT22;2943;48.012;10.968;2022-11-18T07:48:46;6.60;99.90
5834;DHT22;2943;48.012;10.968;2022-11-18T07:51:14;6.60;99.90
5834;DHT22;2943;48.012;10.968;2022-11-18T07:53:42;6.70;99.90
5834;DHT22;2943;48.012;10.968;2022-11-18T07:56:11;6.70;99.90
5834;DHT22;2943;48.012;10.968;2022-11-18T07:58:38;6.70;99.90
5834;DHT22;2943;48.012;10.968;2022-11-18T08:01:07;6.70;99.90
5834;DHT22;2943;48.012;10.968;2022-11-18T08:03:34;6.70;99.90
5834;DHT22;2943;48.012;10.968;2022-11-18T08:06:02;6.80;99.90
5834;DHT22;2943;48.012;10.968;2022-11-18T08:08:29;6.80;99.90
5834;DHT22;2943;48.012;10.968;2022-11-18T08:10:57;6.80;99.90
5834;DHT22;2943;48.012;10.968;2022-11-18T08:13:27;6.80;99.90
5834;DHT22;2943;48.012;10.968;2022-11-18T08:15:55;6.80;99.90
5834;DHT22;2943;48.012;10.968;2022-11-18T08:18:24;6.80;99.90
5834;DHT22;2943;48.012;10.968;2022-11-18T08:20:51;6.80;99.90
5834;DHT22;2943;48.012;10.968;2022-11-18T08:23:18;6.80;99.90
5834;DHT22;2943;48.012;10.968;2022-11-18T08:25:45;6.80;99.90
5834;DHT22;2943;48.012;10.968;2022-11-18T08:28:13;6.80;99.90
5834;DHT22;2943;48.012;10.968;2022-11-18T08:30:42;6.80;99.90
5834;DHT22;2943;48.012;10.968;2022-11-18T08:33:09;6.80;99.90
5834;DHT22;2943;48.012;10.968;2022-11-18T08:35:36;6.90;99.90
5834;DHT22;2943;48.012;10.968;2022-11-18T08:38:03;6.90;99.90
5834;DHT22;2943;48.012;10.968;2022-11-18T08:40:30;6.90;99.90
5834;DHT22;2943;48.012;10.968;2022-11-18T08:42:57;7.00;99.90
5834;DHT22;2943;48.012;10.968;2022-11-18T08:45:24;7.00;99.90
5834;DHT22;2943;48.012;10.968;2022-11-18T08:47:53;7.00;99.90
5834;DHT22;2943;48.012;10.968;2022-11-18T08:50:20;7.10;99.90
5834;DHT22;2943;48.012;10.968;2022-11-18T08:52:47;7.10;99.90
5834;DHT22;2943;48.012;10.968;2022-11-18T08:55:14;7.20;99.90
5834;DHT22;2943;48.012;10.968;2022-11-18T08:57:43;7.20;99.90
5834;DHT22;2943;48.012;10.968;2022-11-18T09:00:13;7.20;99.90
5834;DHT22;2943;48.012;10.968;2022-11-18T09:02:41;7.30;99.90
5834;DHT22;2943;48.012;10.968;2022-11-18T09:05:10;7.30;99.90
5834;DHT22;2943;48.012;10.968;2022-11-18T09:07:36;7.30;99.90
5834;DHT22;2943;48.012;10.968;2022-11-18T09:10:07;7.30;99.90
5834;DHT22;2943;48.012;10.968;2022-11-18T09:12:37;7.40;99.90
5834;DHT22;2943;48.012;10.968;2022-11-18T09:15:07;7.40;99.90
5834;DHT22;2943;48.012;10.968;2022-11-18T09:17:36;7.40;99.90
5834;DHT22;2943;48.012;10.968;2022-11-18T09:20:04;7.40;99.90
5834;DHT22;2943;48.012;10.968;2022-11-18T09:22:35;7.50;99.90
5834;DHT22;2943;48.012;10.968;2022-11-18T09:25:02;7.50;99.90
5834;DHT22;2943;48.012;10.968;2022-11-18T09:27:29;7.50;99.90
5834;DHT22;2943;48.012;10.968;2022-11-18T09:29:56;7.50;99.90
5834;DHT22;2943;48.012;10.968;2022-11-18T09:32:22;7.50;99.90
5834;DHT22;2943;48.012;10.968;2022-11-18T09:34:49;7.60;99.90
5834;DHT22;2943;48.012;10.968;2022-11-18T09:37:16;7.60;99.90
5834;DHT22;2943;48.012;10.968;2022-11-18T09:39:45;7.60;99.90
5834;DHT22;2943;48.012;10.968;2022-11-18T09:42:23;7.60;99.90
5834;DHT22;2943;48.012;10.968;2022-11-18T09:45:07;7.60;99.90
5834;DHT22;2943;48.012;10.968;2022-11-18T09:47:37;7.60;99.90
5834;DHT22;2943;48.012;10.968;2022-11-18T09:50:08;7.60;99.90
5834;DHT22;2943;48.012;10.968;2022-11-18T09:52:41;7.50;99.90
5834;DHT22;2943;48.012;10.968;2022-11-18T09:55:13;7.60;99.90
5834;DHT22;2943;48.012;10.968;2022-11-18T09:57:43;7.60;99.90
5834;DHT22;2943;48.012;10.968;2022-11-18T10:00:15;7.60;99.90
5834;DHT22;2943;48.012;10.968;2022-11-18T10:02:56;7.60;99.90
5834;DHT22;2943;48.012;10.968;2022-11-18T10:05:25;7.50;99.90
5834;DHT22;2943;48.012;10.968;2022-11-18T10:08:08;7.50;99.90
5834;DHT22;2943;48.012;10.968;2022-11-18T10:10:44;7.40;99.90
5834;DHT22;2943;48.012;10.968;2022-11-18T10:13:21;7.40;99.90
5834;DHT22;2943;48.012;10.968;2022-11-18T10:15:59;7.40;99.90
5834;DHT22;2943;48.012;10.968;2022-11-18T10:18:35;7.30;99.90
5834;DHT22;2943;48.012;10.968;2022-11-18T10:21:12;7.20;99.90
5834;DHT22;2943;48.012;10.968;2022-11-18T10:23:49;7.20;99.90
5834;DHT22;2943;48.012;10.968;2022-11-18T10:26:32;7.20;99.90
5834;DHT22;2943;48.012;10.968;2022-11-18T10:29:00;7.20;99.90
5834;DHT22;2943;48.012;10.968;2022-11-18T10:31:27;7.20;99.90
5834;DHT22;2943;48.012;10.968;2022-11-18T10:33:58;7.10;99.90
5834;DHT22;2943;48.012;10.968;2022-11-18T10:36:26;7.10;99.90
5834;DHT22;2943;48.012;10.968;2022-11-18T10:39:09;7.10;99.90
5834;DHT22;2943;48.012;10.968;2022-11-18T10:41:49;7.10;99.90
5834;DHT22;2943;48.012;10.968;2022-11-18T10:44:34;7.10;99.90
5834;DHT22;2943;48.012;10.968;2022-11-18T10:47:21;7.10;99.90
5834;DHT22;2943;48.012;10.968;2022-11-18T10:49:48;7.10;99.90
5834;DHT22;2943;48.012;10.968;2022-11-18T10:52:16;7.10;99.90
5834;DHT22;2943;48.012;10.968;2022-11-18T10:54:43;7.10;99.90
5834;DHT22;2943;48.012;10.968;2022-11-18T10:57:18;7.10;99.90
5834;DHT22;2943;48.012;10.968;2022-11-18T10:59:48;7.10;99.90
5834;DHT22;2943;48.012;10.968;2022-11-18T11:02:18;7.20;99.90
5834;DHT22;2943;48.012;10.968;2022-11-18T11:04:46;7.20;99.90
5834;DHT22;2943;48.012;10.968;2022-11-18T11:07:24;7.10;99.90
5834;DHT22;2943;48.012;10.968;2022-11-18T11:10:12;7.10;99.90
5834;DHT22;2943;48.012;10.968;2022-11-18T11:12:49;7.10;99.90
5834;DHT22;2943;48.012;10.968;2022-11-18T11:15:32;7.10;99.90
5834;DHT22;2943;48.012;10.968;2022-11-18T11:18:03;7.10;99.90
5834;DHT22;2943;48.012;10.968;2022-11-18T11:20:50;7.00;99.90
5834;DHT22;2943;48.012;10.968;2022-11-18T11:23:17;7.00;99.90
5834;DHT22;2943;48.012;10.968;2022-11-18T11:25:51;7.00;99.90
5834;DHT22;2943;48.012;10.968;2022-11-18T11:28:27;7.00;99.90
5834;DHT22;2943;48.012;10.968;2022-11-18T11:31:09;7.00;99.90
5834;DHT22;2943;48.012;10.968;2022-11-18T11:33:43;7.00;99.90
5834;DHT22;2943;48.012;10.968;2022-11-18T11:36:30;7.00;99.90
5834;DHT22;2943;48.012;10.968;2022-11-18T11:39:03;7.00;99.90
5834;DHT22;2943;48.012;10.968;2022-11-18T11:41:39;7.10;99.90
5834;DHT22;2943;48.012;10.968;2022-11-18T11:44:24;7.10;99.90
5834;DHT22;2943;48.012;10.968;2022-11-18T11:47:03;7.10;99.90
5834;DHT22;2943;48.012;10.968;2022-11-18T11:49:52;7.10;99.90
5834;DHT22;2943;48.012;10.968;2022-11-18T11:52:32;7.10;99.90
5834;DHT22;2943;48.012;10.968;2022-11-18T11:55:12;7.10;99.90
5834;DHT22;2943;48.012;10.968;2022-11-18T11:58:02;7.10;99.90
5834;DHT22;2943;48.012;10.968;2022-11-18T12:00:34;7.10;99.90
5834;DHT22;2943;48.012;10.968;2022-11-18T12:03:12;7.10;99.90
5834;DHT22;2943;48.012;10.968;2022-11-18T12:05:42;7.10;99.90
5834;DHT22;2943;48.012;10.968;2022-11-18T12:08:13;7.10;99.90
5834;DHT22;2943;48.012;10.968;2022-11-18T12:10:44;7.10;99.90
5834;DHT22;2943;48.012;10.968;2022-11-18T12:13:32;7.10;99.90
5834;DHT22;2943;48.012;10.968;2022-11-18T12:16:16;7.10;99.90
5834;DHT22;2943;48.012;10.968;2022-11-18T12:18:47;7.10;99.90
5834;DHT22;2943;48.012;10.968;2022-11-18T12:21:51;7.00;99.90
5834;DHT22;2943;48.012;10.968;2022-11-18T12:24:36;7.00;99.90
5834;DHT22;2943;48.012;10.968;2022-11-18T12:27:09;7.10;99.90
5834;DHT22;2943;48.012;10.968;2022-11-18T12:29:50;7.10;99.90
5834;DHT22;2943;48.012;10.968;2022-11-18T12:32:28;7.10;99.90
5834;DHT22;2943;48.012;10.968;2022-11-18T12:34:58;7.00;99.90
5834;DHT22;2943;48.012;10.968;2022-11-18T12:37:43;7.10;99.90
5834;DHT22;2943;48.012;10.968;2022-11-18T12:40:34;7.10;99.90
5834;DHT22;2943;48.012;10.968;2022-11-18T12:43:02;7.10;99.90
5834;DHT22;2943;48.012;10.968;2022-11-18T12:46:01;7.20;99.90
5834;DHT22;2943;48.012;10.968;2022-11-18T12:48:35;7.10;99.90
5834;DHT22;2943;48.012;10.968;2022-11-18T12:53:56;7.10;99.90
5834;DHT22;2943;48.012;10.968;2022-11-18T12:56:26;7.10;99.90
5834;DHT22;2943;48.012;10.968;2022-11-18T12:58:55;7.10;99.90
5834;DHT22;2943;48.012;10.968;2022-11-18T13:01:24;7.10;99.90
5834;DHT22;2943;48.012;10.968;2022-11-18T13:04:07;7.10;99.90
5834;DHT22;2943;48.012;10.968;2022-11-18T13:06:37;7.10;99.90
5834;DHT22;2943;48.012;10.968;2022-11-18T13:09:11;7.20;99.90
5834;DHT22;2943;48.012;10.968;2022-11-18T13:11:45;7.10;99.90
5834;DHT22;2943;48.012;10.968;2022-11-18T13:14:17;7.10;99.90
5834;DHT22;2943;48.012;10.968;2022-11-18T13:17:25;7.10;99.90
5834;DHT22;2943;48.012;10.968;2022-11-18T13:20:23;7.10;99.90
5834;DHT22;2943;48.012;10.968;2022-11-18T13:22:53;7.10;99.90
5834;DHT22;2943;48.012;10.968;2022-11-18T13:25:38;7.10;99.90
5834;DHT22;2943;48.012;10.968;2022-11-18T13:28:16;7.10;99.90
5834;DHT22;2943;48.012;10.968;2022-11-18T13:30:49;7.20;99.90
5834;DHT22;2943;48.012;10.968;2022-11-18T13:33:18;7.20;99.90
5834;DHT22;2943;48.012;10.968;2022-11-18T13:35:46;7.20;99.90
5834;DHT22;2943;48.012;10.968;2022-11-18T13:38:21;7.20;99.90
5834;DHT22;2943;48.012;10.968;2022-11-18T13:40:49;7.20;99.90
5834;DHT22;2943;48.012;10.968;2022-11-18T13:43:33;7.20;99.90
5834;DHT22;2943;48.012;10.968;2022-11-18T13:46:04;7.20;99.90
5834;DHT22;2943;48.012;10.968;2022-11-18T13:48:33;7.10;99.90
5834;DHT22;2943;48.012;10.968;2022-11-18T13:51:06;7.00;99.90
5834;DHT22;2943;48.012;10.968;2022-11-18T13:53:35;6.70;99.90
5834;DHT22;2943;48.012;10.968;2022-11-18T13:56:04;6.60;99.90
5834;DHT22;2943;48.012;10.968;2022-11-18T13:58:36;6.40;99.90
5834;DHT22;2943;48.012;10.968;2022-11-18T14:01:06;6.40;99.90
5834;DHT22;2943;48.012;10.968;2022-11-18T14:03:47;6.40;99.90
5834;DHT22;2943;48.012;10.968;2022-11-18T14:06:25;6.30;99.90
5834;DHT22;2943;48.012;10.968;2022-11-18T14:09:06;6.40;99.90
5834;DHT22;2943;48.012;10.968;2022-11-18T14:11:35;6.50;99.90
5834;DHT22;2943;48.012;10.968;2022-11-18T14:14:02;6.60;99.90
5834;DHT22;2943;48.012;10.968;2022-11-18T14:16:33;6.70;99.90
5834;DHT22;2943;48.012;10.968;2022-11-18T14:19:00;6.70;99.90
5834;DHT22;2943;48.012;10.968;2022-11-18T14:21:30;6.70;99.90
5834;DHT22;2943;48.012;10.968;2022-11-18T14:23:58;6.70;99.90
5834;DHT22;2943;48.012;10.968;2022-11-18T14:26:29;6.70;99.90
5834;DHT22;2943;48.012;10.968;2022-11-18T14:28:58;6.80;99.90
5834;DHT22;2943;48.012;10.968;2022-11-18T14:31:26;6.70;99.90
5834;DHT22;2943;48.012;10.968;2022-11-18T14:34:04;6.70;99.90
5834;DHT22;2943;48.012;10.968;2022-11-18T14:36:33;6.60;99.90
5834;DHT22;2943;48.012;10.968;2022-11-18T14:38:59;6.60;99.90
5834;DHT22;2943;48.012;10.968;2022-11-18T14:41:26;6.60;99.90
5834;DHT22;2943;48.012;10.968;2022-11-18T14:44:13;6.60;99.90
5834;DHT22;2943;48.012;10.968;2022-11-18T14:46:42;6.60;99.90
5834;DHT22;2943;48.012;10.968;2022-11-18T14:49:12;6.50;99.90
5834;DHT22;2943;48.012;10.968;2022-11-18T14:51:41;6.50;99.90
5834;DHT22;2943;48.012;10.968;2022-11-18T14:54:11;6.40;99.90
5834;DHT22;2943;48.012;10.968;2022-11-18T14:56:40;6.40;99.90
5834;DHT22;2943;48.012;10.968;2022-11-18T14:59:11;6.40;99.90
5834;DHT22;2943;48.012;10.968;2022-11-18T15:01:42;6.30;99.90
5834;DHT22;2943;48.012;10.968;2022-11-18T15:04:11;6.20;99.90
5834;DHT22;2943;48.012;10.968;2022-11-18T15:06:40;6.10;99.90
5834;DHT22;2943;48.012;10.968;2022-11-18T15:09:07;6.10;99.90
5834;DHT22;2943;48.012;10.968;2022-11-18T15:11:36;6.00;99.90
5834;DHT22;2943;48.012;10.968;2022-11-18T15:14:03;6.00;99.90
5834;DHT22;2943;48.012;10.968;2022-11-18T15:16:32;6.00;99.90
5834;DHT22;2943;48.012;10.968;2022-11-18T15:19:00;5.90;99.90
5834;DHT22;2943;48.012;10.968;2022-11-18T15:21:28;5.90;99.90
5834;DHT22;2943;48.012;10.968;2022-11-18T15:23:56;5.90;99.90
5834;DHT22;2943;48.012;10.968;2022-11-18T15:26:25;5.90;99.90
5834;DHT22;2943;48.012;10.968;2022-11-18T15:28:53;5.90;99.90
5834;DHT22;2943;48.012;10.968;2022-11-18T15:31:21;5.90;99.90
5834;DHT22;2943;48.012;10.968;2022-11-18T15:33:48;5.90;99.90
5834;DHT22;2943;48.012;10.968;2022-11-18T15:36:17;5.90;99.90
5834;DHT22;2943;48.012;10.968;2022-11-18T15:38:45;5.90;99.90
5834;DHT22;2943;48.012;10.968;2022-11-18T15:41:14;5.90;99.90
5834;DHT22;2943;48.012;10.968;2022-11-18T15:43:42;5.90;99.90
5834;DHT22;2943;48.012;10.968;2022-11-18T15:46:10;5.90;99.90
5834;DHT22;2943;48.012;10.968;2022-11-18T15:48:37;5.90;99.90
5834;DHT22;2943;48.012;10.968;2022-11-18T15:51:05;5.90;99.90
5834;DHT22;2943;48.012;10.968;2022-11-18T15:53:32;5.90;99.90
5834;DHT22;2943;48.012;10.968;2022-11-18T15:56:25;5.90;99.90
5834;DHT22;2943;48.012;10.968;2022-11-18T15:58:52;5.90;99.90
5834;DHT22;2943;48.012;10.968;2022-11-18T16:01:19;5.90;99.90
5834;DHT22;2943;48.012;10.968;2022-11-18T16:03:49;5.90;99.90
5834;DHT22;2943;48.012;10.968;2022-11-18T16:06:16;5.90;99.90
5834;DHT22;2943;48.012;10.968;2022-11-18T16:08:43;5.90;99.90
5834;DHT22;2943;48.012;10.968;2022-11-18T16:11:10;5.90;99.90
5834;DHT22;2943;48.012;10.968;2022-11-18T16:14:00;5.90;99.90
5834;DHT22;2943;48.012;10.968;2022-11-18T16:16:27;5.90;99.90
5834;DHT22;2943;48.012;10.968;2022-11-18T16:18:55;5.90;99.90
5834;DHT22;2943;48.012;10.968;2022-11-18T16:21:23;6.00;99.90
5834;DHT22;2943;48.012;10.968;2022-11-18T16:23:54;6.00;99.90
5834;DHT22;2943;48.012;10.968;2022-11-18T16:26:22;6.00;99.90
5834;DHT22;2943;48.012;10.968;2022-11-18T16:28:49;6.00;99.90
5834;DHT22;2943;48.012;10.968;2022-11-18T16:31:17;6.00;99.90
5834;DHT22;2943;48.012;10.968;2022-11-18T16:34:05;6.00;99.90